Fort Lauderdale Hollywood International Airport
KFLL : now visible

Airfield :











YOU CAN JOIN US ON...

 
LOGIN :

Register | Disclaimer

   EN    FR    IT 

 









Legend :    VFR   Marginal VFR   IFR   Intensive IFR   Very Intensive IFR
Visi :
Ceiling :
>= 8 km
>= 3000ft
5 to 8 km
1000 to 3000 ft
1500m to 5 km
500 to 1000 ft
800 to 1500m
200 to 500 ft
< 800m
< 200 ft
Symbols :   Thunderstorms  Fog  Heavy snow  Heavy precipitations  Wind > 20 kt






- Airport Elevation : 9 ft
- IATA code : FLL


KFLL - Fort Lauderdale Hollywood International

CURRENT METAR :
  • 180553Z 31004KT 9SM -RA BKN050 BKN120 OVC180 17/12 A3005 RMK AO2 RAB41 SLP176 P0000 60000 T01670117 10183 20167 55005

EXPIRED METARs :
  • 180453Z 16005KT 10SM BKN060 BKN120 OVC200 17/11 A3004 RMK AO2 SLP171 T01720106 402110111
  • 180353Z 00000KT 10SM BKN120 17/11 A3008 RMK AO2 SLP184 T01720111

TAF KFLL
Valid from the 18 at 06:00 until the 19 at 12:00 UTC


180523Z 1806/1912 VRB04KT P6SM SCT030 BKN050
FM181400 32008KT P6SM FEW040 SCT200
FM182100 35006KT P6SM FEW040 FEW250
FM190100 02006KT P6SM FEW025 FEW250
KZMA FIR / North America



MET'MAP, your aeronautical weather chart ! - Copyright ORBIFLY December 2007 - Disclaimer

ORBIFLY MET'MAP TEAM :

Programming & Development : Alexandra Zaïnal
Concept & original design : Baudouin d'Aumeries
Assistance for programming : Marc-Olivier Méhu
Technical & hardware support : Manuel Goepfert

Contact : metmap@orbifly.com




SOURCES & CREDITS :

   NOAA       Earth
Advisory